createdAt,value
2018-09-18T00:01:50.894Z,7.17
2018-09-18T00:04:21.028Z,9.70
2018-09-18T00:06:51.605Z,8.37
2018-09-18T00:09:20.279Z,11.60
2018-09-18T00:11:48.741Z,8.93
2018-09-18T00:14:16.705Z,9.17
2018-09-18T00:16:45.975Z,9.43
2018-09-18T00:19:14.226Z,10.40
2018-09-18T00:21:44.451Z,8.73
2018-09-18T00:24:13.212Z,11.10
2018-09-18T00:26:41.932Z,7.33
2018-09-18T00:29:11.400Z,9.07
2018-09-18T00:31:39.443Z,9.53
2018-09-18T00:34:08.157Z,9.47
2018-09-18T00:36:36.060Z,10.20
2018-09-18T00:39:05.827Z,9.93
2018-09-18T00:41:34.242Z,10.37
2018-09-18T00:44:02.969Z,10.80
2018-09-18T00:46:31.129Z,9.90
2018-09-18T00:49:00.126Z,9.03
2018-09-18T00:51:28.074Z,10.07
2018-09-18T00:53:56.709Z,11.87
2018-09-18T00:56:24.714Z,9.93
2018-09-18T00:58:53.731Z,8.73
2018-09-18T01:01:21.636Z,9.10
2018-09-18T01:03:52.089Z,11.77
2018-09-18T01:06:20.711Z,10.03
2018-09-18T01:08:49.285Z,8.23
2018-09-18T01:11:17.876Z,9.97
2018-09-18T01:13:45.793Z,9.97
2018-09-18T01:16:14.612Z,8.80
2018-09-18T01:18:44.525Z,9.23
2018-09-18T01:21:13.270Z,7.60
2018-09-18T01:23:41.318Z,6.47
2018-09-18T01:26:10.319Z,8.23
2018-09-18T01:28:38.326Z,8.30
2018-09-18T01:31:07.451Z,9.03
2018-09-18T01:33:35.672Z,9.47
2018-09-18T01:36:04.001Z,9.43
2018-09-18T01:38:31.930Z,8.00
2018-09-18T01:41:01.258Z,9.73
2018-09-18T01:43:30.419Z,6.77
2018-09-18T01:46:00.143Z,6.40
2018-09-18T01:48:28.623Z,7.03
2018-09-18T01:50:56.586Z,10.33
2018-09-18T01:53:24.976Z,7.70
2018-09-18T01:55:53.596Z,6.73
2018-09-18T01:58:22.202Z,9.80
2018-09-18T02:00:50.101Z,7.47
2018-09-18T02:03:19.054Z,7.50
2018-09-18T02:05:47.822Z,5.87
2018-09-18T02:08:22.772Z,7.87
2018-09-18T02:10:50.706Z,10.47
2018-09-18T02:13:19.239Z,10.83
2018-09-18T02:15:47.957Z,9.27
2018-09-18T02:18:15.845Z,10.07
2018-09-18T02:20:44.039Z,8.40
2018-09-18T02:23:14.545Z,11.50
2018-09-18T02:25:43.976Z,8.73
2018-09-18T02:28:12.688Z,9.33
2018-09-18T02:30:41.314Z,8.87
2018-09-18T02:33:10.136Z,9.87
2018-09-18T02:35:38.121Z,6.43
2018-09-18T02:38:06.131Z,6.00
2018-09-18T02:40:34.227Z,6.77
2018-09-18T02:43:02.369Z,6.50
2018-09-18T02:45:30.273Z,6.23
2018-09-18T02:47:59.366Z,7.90
2018-09-18T02:50:27.932Z,8.10
2018-09-18T02:52:55.870Z,7.17
2018-09-18T02:55:23.981Z,8.70
2018-09-18T02:57:51.921Z,8.53
2018-09-18T03:00:19.890Z,7.17
2018-09-18T03:02:48.767Z,11.00
2018-09-18T03:05:17.238Z,10.13
2018-09-18T03:07:45.848Z,10.83
2018-09-18T03:10:13.746Z,8.17
2018-09-18T03:12:42.594Z,9.20
2018-09-18T03:15:13.428Z,11.10
2018-09-18T03:17:42.158Z,9.23
2018-09-18T03:20:12.733Z,9.10
2018-09-18T03:22:42.555Z,8.17
2018-09-18T03:25:11.037Z,8.20
2018-09-18T03:27:41.059Z,10.30
2018-09-18T03:30:09.619Z,7.27
2018-09-18T03:32:37.541Z,7.87
2018-09-18T03:35:07.229Z,9.63
2018-09-18T03:37:35.196Z,7.17
2018-09-18T03:40:03.279Z,7.20
2018-09-18T03:42:31.721Z,7.07
2018-09-18T03:44:59.611Z,9.60
2018-09-18T03:47:28.562Z,9.73
2018-09-18T03:49:57.053Z,8.23
2018-09-18T03:52:26.360Z,7.20
2018-09-18T03:54:54.367Z,7.93
2018-09-18T03:57:22.991Z,9.73
2018-09-18T03:59:51.044Z,9.17
2018-09-18T04:02:18.966Z,9.73
2018-09-18T04:04:46.876Z,8.20
2018-09-18T04:07:16.946Z,8.67
2018-09-18T04:09:47.351Z,7.47
2018-09-18T04:12:16.139Z,7.73
2018-09-18T04:14:44.824Z,8.90
2018-09-18T04:17:13.452Z,10.17
2018-09-18T04:19:41.497Z,13.83
2018-09-18T04:22:09.948Z,8.37
2018-09-18T04:24:39.693Z,8.63
2018-09-18T04:27:07.700Z,12.83
2018-09-18T04:29:35.673Z,8.17
2018-09-18T04:32:04.318Z,10.03
2018-09-18T04:34:32.420Z,8.87
2018-09-18T04:37:00.355Z,8.43
2018-09-18T04:39:30.019Z,11.10
2018-09-18T04:41:58.048Z,8.73
2018-09-18T04:44:26.268Z,9.57
2018-09-18T04:46:54.978Z,12.50
2018-09-18T04:49:23.477Z,10.23
2018-09-18T04:51:51.504Z,12.90
2018-09-18T04:54:19.979Z,10.00
2018-09-18T04:56:47.892Z,8.00
2018-09-18T04:59:15.796Z,10.00
2018-09-18T05:01:43.785Z,10.93
2018-09-18T05:04:13.745Z,11.53
2018-09-18T05:06:42.105Z,12.83
2018-09-18T05:09:11.686Z,12.47
2018-09-18T05:11:42.416Z,9.27
2018-09-18T05:14:11.193Z,11.13
2018-09-18T05:16:40.519Z,9.97
2018-09-18T05:19:08.910Z,7.70
2018-09-18T05:21:37.560Z,10.37
2018-09-18T05:24:06.647Z,10.73
2018-09-18T05:26:34.743Z,11.20
2018-09-18T05:29:02.722Z,7.97
2018-09-18T05:31:30.829Z,10.37
2018-09-18T05:33:58.776Z,13.50
2018-09-18T05:36:29.704Z,8.53
2018-09-18T05:38:57.740Z,17.63
2018-09-18T05:41:25.814Z,13.40
2018-09-18T05:43:53.850Z,10.97
2018-09-18T05:46:21.824Z,9.80
2018-09-18T05:48:49.690Z,14.30
2018-09-18T05:51:17.672Z,10.33
2018-09-18T05:53:45.624Z,10.90
2018-09-18T05:56:14.310Z,13.43
2018-09-18T05:58:43.648Z,10.00
2018-09-18T06:01:12.892Z,13.77
2018-09-18T06:03:41.395Z,11.87
2018-09-18T06:06:09.356Z,15.00
2018-09-18T06:08:37.782Z,13.17
2018-09-18T06:11:05.739Z,15.50
2018-09-18T06:13:34.702Z,19.73
2018-09-18T06:16:03.293Z,15.00
2018-09-18T06:18:31.172Z,18.40
2018-09-18T06:21:14.336Z,17.73
2018-09-18T06:23:42.413Z,16.73
2018-09-18T06:26:10.314Z,14.60
2018-09-18T06:28:38.241Z,13.93
2018-09-18T06:31:06.198Z,19.83
2018-09-18T06:33:34.726Z,13.93
2018-09-18T06:36:03.602Z,19.30
2018-09-18T06:38:31.465Z,13.07
2018-09-18T06:40:59.340Z,22.63
2018-09-18T06:43:29.145Z,21.80
2018-09-18T06:45:58.639Z,13.93
2018-09-18T06:48:27.880Z,15.93
2018-09-18T06:50:58.088Z,26.00
2018-09-18T06:53:26.138Z,24.20
2018-09-18T06:55:54.026Z,24.37
2018-09-18T06:58:22.036Z,18.20
2018-09-18T07:00:49.949Z,15.07
2018-09-18T07:03:18.529Z,27.17
2018-09-18T07:05:48.490Z,27.97
2018-09-18T07:08:16.597Z,17.47
2018-09-18T07:10:45.771Z,12.53
2018-09-18T07:13:13.740Z,20.27
2018-09-18T07:15:45.392Z,20.90
2018-09-18T07:18:16.637Z,22.60
2018-09-18T07:20:47.376Z,18.60
2018-09-18T07:23:16.522Z,21.53
2018-09-18T07:25:45.397Z,22.43
2018-09-18T07:28:14.330Z,19.83
2018-09-18T07:30:42.293Z,18.87
2018-09-18T07:33:11.686Z,16.83
2018-09-18T07:35:40.230Z,15.40
2018-09-18T07:38:08.835Z,15.47
2018-09-18T07:40:36.773Z,18.87
2018-09-18T07:43:09.060Z,19.70
2018-09-18T07:45:37.780Z,16.47
2018-09-18T07:48:07.130Z,16.07
2018-09-18T07:50:35.110Z,17.27
2018-09-18T07:53:04.488Z,17.07
2018-09-18T07:55:33.685Z,16.90
2018-09-18T07:58:01.638Z,22.40
2018-09-18T08:00:29.647Z,17.07
2018-09-18T08:02:58.357Z,17.37
2018-09-18T08:05:26.219Z,17.73
2018-09-18T08:07:54.511Z,16.10
2018-09-18T08:10:24.361Z,11.20
2018-09-18T08:12:52.500Z,16.40
2018-09-18T08:15:22.784Z,15.63
2018-09-18T08:17:52.325Z,17.00
2018-09-18T08:20:22.297Z,17.67
2018-09-18T08:22:50.438Z,60.53
2018-09-18T08:25:20.465Z,15.33
2018-09-18T08:27:52.616Z,15.23
2018-09-18T08:30:21.138Z,17.13
2018-09-18T08:32:49.114Z,12.30
2018-09-18T08:35:17.001Z,16.93
2018-09-18T08:37:44.958Z,18.10
2018-09-18T08:40:13.512Z,12.73
2018-09-18T08:42:48.214Z,10.50
2018-09-18T08:45:17.669Z,12.77
2018-09-18T08:50:11.563Z,12.37
2018-09-18T08:52:51.454Z,9.97
2018-09-18T08:55:24.329Z,8.27
2018-09-18T08:58:05.084Z,13.67
2018-09-18T09:00:33.139Z,7.83
2018-09-18T09:03:02.627Z,5.50
2018-09-18T09:05:32.625Z,5.27
2018-09-18T09:10:42.444Z,7.00
2018-09-18T09:13:11.130Z,6.07
2018-09-18T09:15:43.059Z,5.30
2018-09-18T09:18:12.683Z,9.13
2018-09-18T09:20:42.594Z,6.07
2018-09-18T09:23:13.969Z,6.60
2018-09-18T09:26:00.936Z,5.87
2018-09-18T09:28:43.116Z,4.07
2018-09-18T09:31:22.106Z,4.13
2018-09-18T09:33:54.888Z,5.87
2018-09-18T09:36:23.071Z,5.80
2018-09-18T09:38:53.127Z,5.53
2018-09-18T09:41:21.431Z,5.57
2018-09-18T09:43:52.099Z,7.40
2018-09-18T09:46:23.290Z,4.60
2018-09-18T09:48:52.654Z,5.37
2018-09-18T09:51:21.544Z,4.20
2018-09-18T09:54:00.283Z,4.43
2018-09-18T09:56:29.665Z,5.53
2018-09-18T09:59:00.791Z,6.63
2018-09-18T10:02:03.450Z,4.97
2018-09-18T10:04:47.937Z,5.13
2018-09-18T10:07:17.810Z,6.20
2018-09-18T10:09:56.331Z,4.00
2018-09-18T10:12:27.750Z,6.53
2018-09-18T10:15:26.529Z,6.30
2018-09-18T10:18:18.815Z,5.70
2018-09-18T10:20:48.102Z,5.37
2018-09-18T10:23:24.409Z,9.07
2018-09-18T10:25:52.423Z,9.40
2018-09-18T10:28:20.440Z,5.87
2018-09-18T10:30:54.867Z,4.50
2018-09-18T10:33:24.069Z,6.30
2018-09-18T10:35:54.247Z,6.63
2018-09-18T10:38:32.430Z,9.00
2018-09-18T10:41:20.031Z,8.43
2018-09-18T10:43:49.717Z,9.30
2018-09-18T10:46:17.854Z,7.13
2018-09-18T10:48:54.565Z,10.80
2018-09-18T10:51:31.301Z,6.03
2018-09-18T10:53:59.965Z,8.73
2018-09-18T10:56:32.999Z,8.50
2018-09-18T10:59:05.543Z,5.27
2018-09-18T11:01:38.520Z,5.53
2018-09-18T11:04:31.464Z,6.50
2018-09-18T11:07:09.946Z,7.83
2018-09-18T11:10:07.307Z,8.63
2018-09-18T11:16:36.469Z,4.97
2018-09-18T11:19:17.548Z,4.10
2018-09-18T11:22:08.773Z,7.40
2018-09-18T11:24:37.810Z,6.27
2018-09-18T11:27:09.686Z,6.73
2018-09-18T11:29:40.877Z,5.13
2018-09-18T11:32:11.373Z,5.30
2018-09-18T11:34:43.460Z,6.63
2018-09-18T11:37:39.384Z,6.23
2018-09-18T11:40:22.245Z,7.23
2018-09-18T11:43:10.651Z,4.93
2018-09-18T11:45:42.561Z,5.37
2018-09-18T11:48:10.542Z,4.30
2018-09-18T11:53:25.241Z,5.43
2018-09-18T11:56:10.422Z,5.80
2018-09-18T11:58:39.031Z,4.83
2018-09-18T12:01:30.626Z,4.63
2018-09-18T12:03:58.754Z,9.57
2018-09-18T12:06:27.791Z,4.37
2018-09-18T12:08:56.780Z,5.57
2018-09-18T12:11:32.413Z,9.93
2018-09-18T12:14:26.323Z,8.73
2018-09-18T12:17:24.361Z,5.57
2018-09-18T12:20:22.099Z,3.90
2018-09-18T12:22:55.903Z,5.63
2018-09-18T12:25:32.237Z,6.17
2018-09-18T12:28:02.429Z,5.80
2018-09-18T12:30:47.351Z,4.33
2018-09-18T12:33:24.517Z,4.23
2018-09-18T12:35:54.324Z,4.43
2018-09-18T12:38:24.800Z,4.83
2018-09-18T12:40:57.760Z,6.17
2018-09-18T12:43:29.742Z,4.87
2018-09-18T12:46:00.745Z,4.90
2018-09-18T12:48:31.846Z,3.70
2018-09-18T12:51:02.508Z,7.67
2018-09-18T12:53:52.193Z,4.63
2018-09-18T12:56:24.309Z,3.80
2018-09-18T12:59:33.173Z,5.33
2018-09-18T13:02:13.237Z,4.73
2018-09-18T13:04:50.750Z,9.77
2018-09-18T13:07:20.036Z,4.30
2018-09-18T13:09:50.848Z,4.27
2018-09-18T13:12:34.338Z,2.87
2018-09-18T13:15:10.488Z,4.03
2018-09-18T13:17:38.686Z,4.43
2018-09-18T13:23:34.718Z,7.87
2018-09-18T13:26:35.841Z,6.87
2018-09-18T13:29:13.158Z,6.53
2018-09-18T13:31:41.529Z,5.73
2018-09-18T13:34:10.099Z,6.37
2018-09-18T13:36:40.303Z,5.80
2018-09-18T13:39:23.517Z,5.60
2018-09-18T13:42:10.021Z,3.60
2018-09-18T13:44:43.415Z,4.67
2018-09-18T13:53:00.036Z,5.40
2018-09-18T13:55:29.575Z,7.10
2018-09-18T13:58:02.953Z,3.97
2018-09-18T14:00:57.705Z,4.67
2018-09-18T14:03:31.883Z,6.50
2018-09-18T14:06:01.537Z,6.27
2018-09-18T14:08:54.141Z,5.63
2018-09-18T14:11:26.624Z,6.77
2018-09-18T14:13:55.961Z,4.57
2018-09-18T14:16:43.370Z,5.30
2018-09-18T14:19:22.717Z,5.80
2018-09-18T14:21:50.715Z,7.07
2018-09-18T14:24:26.310Z,4.97
2018-09-18T14:27:10.365Z,4.07
2018-09-18T14:29:45.580Z,6.17
2018-09-18T14:32:14.564Z,6.20
2018-09-18T14:34:47.352Z,5.50
2018-09-18T14:40:28.109Z,4.37
2018-09-18T14:42:56.621Z,7.37
2018-09-18T14:45:26.037Z,5.13
2018-09-18T14:47:54.066Z,4.87
2018-09-18T14:50:42.053Z,6.33
2018-09-18T14:53:20.451Z,6.10
2018-09-18T14:55:57.562Z,6.40
2018-09-18T14:58:30.884Z,6.50
2018-09-18T15:01:00.752Z,5.10
2018-09-18T15:03:32.945Z,6.13
2018-09-18T15:06:44.680Z,7.03
2018-09-18T15:12:34.786Z,7.10
2018-09-18T15:17:52.681Z,6.33
2018-09-18T15:23:42.571Z,5.93
2018-09-18T15:26:54.069Z,6.80
2018-09-18T15:29:25.023Z,8.77
2018-09-18T15:31:54.794Z,4.90
2018-09-18T15:34:41.539Z,7.30
2018-09-18T15:41:03.766Z,4.60
2018-09-18T15:43:44.304Z,7.80
2018-09-18T15:49:48.665Z,4.60
2018-09-18T15:53:33.438Z,7.17
2018-09-18T15:56:03.034Z,3.70
2018-09-18T15:58:33.904Z,5.17
2018-09-18T16:01:18.927Z,6.53
2018-09-18T16:03:54.010Z,6.57
2018-09-18T16:06:39.712Z,4.87
2018-09-18T16:09:38.685Z,10.97
2018-09-18T16:12:16.511Z,8.40
2018-09-18T16:14:45.866Z,6.47
2018-09-18T16:17:23.379Z,3.87
2018-09-18T16:20:14.463Z,5.07
2018-09-18T16:22:49.006Z,11.67
2018-09-18T16:25:38.596Z,5.63
2018-09-18T16:28:27.703Z,5.70
2018-09-18T16:31:00.458Z,3.87
2018-09-18T16:33:30.903Z,4.33
2018-09-18T16:36:30.168Z,3.93
2018-09-18T16:39:15.072Z,5.27
2018-09-18T16:41:44.648Z,5.60
2018-09-18T16:44:24.672Z,7.47
2018-09-18T16:47:00.791Z,10.33
2018-09-18T16:49:33.688Z,6.17
2018-09-18T16:52:04.625Z,8.70
2018-09-18T16:54:36.632Z,6.47
2018-09-18T16:57:14.125Z,6.97
2018-09-18T17:00:04.472Z,9.43
2018-09-18T17:02:43.210Z,8.87
2018-09-18T17:05:12.311Z,4.27
2018-09-18T17:07:43.238Z,8.77
2018-09-18T17:10:22.514Z,8.03
2018-09-18T17:13:02.599Z,6.27
2018-09-18T17:15:36.861Z,7.27
2018-09-18T17:18:05.716Z,8.40
2018-09-18T17:20:54.241Z,7.80
2018-09-18T17:23:58.132Z,10.97
2018-09-18T17:29:11.263Z,9.00
2018-09-18T17:31:43.354Z,8.37
2018-09-18T17:34:21.219Z,8.13
2018-09-18T17:36:56.030Z,6.00
2018-09-18T17:39:49.441Z,7.70
2018-09-18T17:42:23.728Z,7.80
2018-09-18T17:45:04.538Z,8.73
2018-09-18T17:47:39.740Z,7.33
2018-09-18T17:50:38.998Z,7.97
2018-09-18T17:53:30.959Z,6.23
2018-09-18T18:02:07.489Z,6.53
2018-09-18T18:05:44.930Z,6.90
2018-09-18T18:08:38.139Z,6.43
2018-09-18T18:11:28.705Z,9.77
2018-09-18T18:14:01.417Z,10.73
2018-09-18T18:16:32.572Z,7.87
2018-09-18T18:19:23.227Z,11.57
2018-09-18T18:22:13.207Z,7.53
2018-09-18T18:24:57.713Z,8.87
2018-09-18T18:27:35.183Z,10.03
2018-09-18T18:33:15.220Z,9.90
2018-09-18T18:35:44.150Z,9.70
2018-09-18T18:39:09.765Z,12.50
2018-09-18T18:41:42.246Z,10.33
2018-09-18T18:44:19.914Z,9.03
2018-09-18T18:47:50.247Z,11.20
2018-09-18T18:50:36.759Z,9.70
2018-09-18T18:53:06.621Z,9.17
2018-09-18T18:55:34.728Z,10.50
2018-09-18T18:58:05.454Z,9.00
2018-09-18T19:00:35.109Z,11.43
2018-09-18T19:03:04.155Z,9.47
2018-09-18T19:05:37.845Z,9.50
2018-09-18T19:08:10.104Z,10.47
2018-09-18T19:10:49.795Z,18.93
2018-09-18T19:16:06.047Z,11.10
2018-09-18T19:18:37.725Z,11.07
2018-09-18T19:21:07.724Z,9.43
2018-09-18T19:26:25.870Z,17.10
2018-09-18T19:29:17.091Z,12.05
2018-09-18T19:31:56.611Z,14.20
2018-09-18T19:34:38.520Z,10.73
2018-09-18T19:43:25.338Z,10.00
2018-09-18T19:45:57.809Z,7.67
2018-09-18T19:48:28.852Z,12.97
2018-09-18T19:51:02.093Z,12.53
2018-09-18T19:53:32.561Z,8.37
2018-09-18T19:56:06.225Z,8.60
2018-09-18T19:58:38.843Z,10.17
2018-09-18T20:01:31.824Z,9.10
2018-09-18T20:04:14.550Z,10.73
2018-09-18T20:06:56.165Z,10.37
2018-09-18T20:09:27.548Z,15.23
2018-09-18T20:12:00.690Z,12.63
2018-09-18T20:14:30.987Z,12.73
2018-09-18T20:17:00.542Z,10.70
2018-09-18T20:19:33.160Z,11.03
2018-09-18T20:25:34.337Z,11.57
2018-09-18T20:28:03.666Z,14.83
2018-09-18T20:30:34.891Z,16.27
2018-09-18T20:33:04.960Z,10.43
2018-09-18T20:35:44.963Z,14.53
2018-09-18T20:38:14.700Z,12.57
2018-09-18T20:40:46.358Z,12.57
2018-09-18T20:43:19.540Z,10.60
2018-09-18T20:45:47.835Z,10.33
2018-09-18T20:48:17.917Z,37.27
2018-09-18T20:50:46.757Z,17.90
2018-09-18T20:53:20.250Z,26.37
2018-09-18T20:55:48.473Z,21.80
2018-09-18T20:58:19.179Z,16.27
2018-09-18T21:00:47.330Z,13.07
2018-09-18T21:03:16.690Z,10.77
2018-09-18T21:05:49.224Z,11.60
2018-09-18T21:08:19.199Z,12.90
2018-09-18T21:10:47.342Z,9.27
2018-09-18T21:13:18.471Z,12.37
2018-09-18T21:15:49.251Z,9.20
2018-09-18T21:18:18.679Z,9.53
2018-09-18T21:20:47.399Z,8.97
2018-09-18T21:23:17.093Z,8.40
2018-09-18T21:26:02.401Z,11.70
2018-09-18T21:28:34.734Z,11.50
2018-09-18T21:31:04.504Z,12.63
2018-09-18T21:33:33.974Z,13.03
2018-09-18T21:36:02.643Z,8.70
2018-09-18T21:38:31.726Z,10.87
2018-09-18T21:41:02.403Z,11.93
2018-09-18T21:43:31.751Z,9.70
2018-09-18T21:46:00.495Z,9.27
2018-09-18T21:48:29.776Z,12.37
2018-09-18T21:50:58.440Z,9.03
2018-09-18T21:53:36.194Z,9.83
2018-09-18T21:56:06.447Z,12.33
2018-09-18T21:58:38.240Z,10.37
2018-09-18T22:01:07.047Z,11.13
2018-09-18T22:03:46.932Z,10.93
2018-09-18T22:06:15.168Z,9.70
2018-09-18T22:08:44.656Z,10.07
2018-09-18T22:11:14.515Z,14.13
2018-09-18T22:13:49.595Z,13.53
2018-09-18T22:16:19.929Z,11.70
2018-09-18T22:18:52.870Z,13.93
2018-09-18T22:21:22.991Z,14.33
2018-09-18T22:23:53.775Z,14.03
2018-09-18T22:26:21.770Z,13.97
2018-09-18T22:28:50.808Z,12.13
2018-09-18T22:31:20.119Z,10.97
2018-09-18T22:33:49.417Z,12.03
2018-09-18T22:36:17.742Z,12.73
2018-09-18T22:38:46.881Z,8.97
2018-09-18T22:41:16.551Z,8.13
2018-09-18T22:43:44.916Z,8.77
2018-09-18T22:46:13.101Z,10.77
2018-09-18T22:48:42.430Z,12.57
2018-09-18T22:51:16.726Z,13.50
2018-09-18T22:53:46.245Z,8.30
2018-09-18T22:56:14.244Z,8.83
2018-09-18T22:58:43.702Z,10.83
2018-09-18T23:01:12.846Z,8.17
2018-09-18T23:03:42.333Z,11.33
2018-09-18T23:06:11.325Z,9.00
2018-09-18T23:08:39.836Z,11.73
2018-09-18T23:11:09.761Z,8.77
2018-09-18T23:13:37.877Z,8.40
2018-09-18T23:16:06.301Z,10.63
2018-09-18T23:18:34.862Z,12.23
2018-09-18T23:21:03.492Z,9.03
2018-09-18T23:23:32.780Z,12.20
2018-09-18T23:26:01.757Z,10.13
2018-09-18T23:28:31.636Z,11.10
2018-09-18T23:31:00.744Z,8.40
2018-09-18T23:33:30.179Z,11.00
2018-09-18T23:36:00.809Z,8.70
2018-09-18T23:38:32.518Z,12.43
2018-09-18T23:41:02.444Z,11.20
2018-09-18T23:43:30.642Z,9.40
2018-09-18T23:45:58.761Z,9.50
2018-09-18T23:48:30.394Z,13.03
2018-09-18T23:50:58.746Z,11.17
2018-09-18T23:53:27.482Z,10.23
2018-09-18T23:55:56.368Z,10.33
2018-09-18T23:58:24.738Z,12.07
